Time;durP1;ratioP1;P1;durP2;ratioP2;P2;SDS_P1;SDS_P2;PMS_P1;PMS_P2;Temp;Humidity;BMP_temperature;BMP_pressure;BME280_temperature;BME280_humidity;BME280_pressure;Samples;Min_cycle;Max_cycle;Signal;HPM_P1;HPM_P2
2021/05/26 04:16:48;;;;;;;2.60;1.17;;;;;;;10.28;71.92;98787.19;5262498;23;20376;-72
2021/05/26 04:19:13;;;;;;;3.08;1.40;;;;;;;10.19;71.93;98787.31;4916112;29;20040;-72
2021/05/26 04:21:38;;;;;;;2.83;1.10;;;;;;;10.03;72.43;98789.28;4906700;29;20044;-70
2021/05/26 04:24:04;;;;;;;6.85;1.35;;;;;;;10.12;72.38;98780.53;4916024;29;20032;-70
2021/05/26 04:26:29;;;;;;;3.67;1.40;;;;;;;10.03;72.29;98797.91;4915786;29;20545;-70
2021/05/26 04:28:55;;;;;;;2.25;1.20;;;;;;;10.21;71.89;98789.00;4915935;29;20116;-70
2021/05/26 04:31:20;;;;;;;3.72;1.80;;;;;;;10.12;72.37;98801.25;4915228;29;20102;-70
2021/05/26 04:33:46;;;;;;;3.75;1.35;;;;;;;10.09;73.13;98806.47;4915277;29;20024;-70
2021/05/26 04:36:11;;;;;;;3.15;1.27;;;;;;;10.05;73.41;98801.31;4915105;29;20095;-70
2021/05/26 04:38:36;;;;;;;4.90;1.40;;;;;;;10.08;73.63;98807.34;4915164;29;20024;-70
2021/05/26 04:41:02;;;;;;;3.22;1.35;;;;;;;10.12;73.95;98809.00;4915182;29;20108;-69
2021/05/26 04:43:28;;;;;;;4.55;1.30;;;;;;;10.12;73.88;98802.09;4915176;29;20052;-71
2021/05/26 04:45:54;;;;;;;2.78;1.50;;;;;;;9.99;74.32;98798.84;4914957;29;20028;-69
2021/05/26 04:48:19;;;;;;;5.35;2.47;;;;;;;10.03;75.17;98797.91;4915242;29;20027;-70
2021/05/26 04:50:44;;;;;;;3.38;1.92;;;;;;;9.86;75.10;98789.53;4915077;29;20039;-69
2021/05/26 04:53:10;;;;;;;7.40;2.25;;;;;;;9.84;75.88;98790.47;4915140;29;20072;-70
2021/05/26 04:55:35;;;;;;;5.53;1.52;;;;;;;9.80;76.10;98787.06;4914902;29;20377;-69
2021/05/26 04:58:03;;;;;;;6.50;1.20;;;;;;;9.78;77.92;98781.06;4915082;29;20020;-70
2021/05/26 05:00:29;;;;;;;6.25;1.60;;;;;;;9.75;78.65;98778.50;4914852;29;20047;-70
2021/05/26 05:02:56;;;;;;;3.03;1.20;;;;;;;9.67;77.01;98782.94;4913798;29;20020;-70
2021/05/26 05:05:22;;;;;;;2.95;1.33;;;;;;;9.79;76.76;98782.75;4907018;29;20564;-70
2021/05/26 05:07:47;;;;;;;3.97;1.40;;;;;;;9.78;76.79;98775.88;4908138;29;20028;-70
2021/05/26 05:10:13;;;;;;;5.40;1.55;;;;;;;9.78;77.57;98770.72;4914021;29;20386;-70
2021/05/26 05:12:38;;;;;;;5.03;1.42;;;;;;;9.74;77.83;98769.03;4914623;29;20103;-70
2021/05/26 05:15:05;;;;;;;5.25;1.45;;;;;;;9.61;78.14;98772.66;4915879;29;20031;-70
2021/05/26 05:17:30;;;;;;;3.47;1.52;;;;;;;9.64;78.54;98772.63;4919463;29;20052;-72
2021/05/26 05:19:56;;;;;;;2.78;1.00;;;;;;;9.81;77.64;98780.13;4917568;29;20505;-72
2021/05/26 05:22:21;;;;;;;2.50;1.33;;;;;;;9.80;78.09;98779.28;4918159;29;20047;-74
2021/05/26 05:24:46;;;;;;;5.72;1.90;;;;;;;9.72;78.48;98770.81;4918152;29;20026;-75
2021/05/26 05:27:12;;;;;;;2.65;1.27;;;;;;;9.72;79.59;98775.97;4917952;29;20410;-75
2021/05/26 05:29:37;;;;;;;1.65;1.10;;;;;;;9.66;78.69;98773.47;4917921;29;20481;-74
2021/05/26 05:32:02;;;;;;;3.25;1.02;;;;;;;9.65;78.36;98774.34;4917201;29;20024;-75
2021/05/26 05:34:27;;;;;;;2.88;1.40;;;;;;;9.73;78.57;98778.53;4918098;29;20054;-71
2021/05/26 05:36:53;;;;;;;4.13;1.50;;;;;;;9.59;78.29;98766.69;4917889;29;20028;-70
2021/05/26 05:39:18;;;;;;;4.68;1.33;;;;;;;9.61;77.65;98767.50;4917885;29;20024;-70
2021/05/26 05:41:45;;;;;;;2.90;1.38;;;;;;;9.60;79.14;98765.78;4917956;29;20020;-70
2021/05/26 05:44:10;;;;;;;1.83;1.10;;;;;;;9.56;80.23;98756.38;4916895;29;20504;-71
2021/05/26 05:46:36;;;;;;;6.18;1.38;;;;;;;9.50;80.14;98750.41;4916866;29;20020;-70
2021/05/26 05:49:01;;;;;;;6.97;1.60;;;;;;;9.51;80.26;98746.94;4917321;29;20529;-70
2021/05/26 05:51:26;;;;;;;3.53;1.35;;;;;;;9.52;80.19;98748.66;4917736;29;20028;-70
2021/05/26 05:53:52;;;;;;;5.70;1.40;;;;;;;9.61;80.33;98751.97;4917584;29;20024;-70
2021/05/26 05:56:17;;;;;;;3.33;1.67;;;;;;;9.63;81.10;98742.47;4916593;29;20028;-70
2021/05/26 05:58:42;;;;;;;4.57;2.20;;;;;;;9.68;80.95;98748.44;4917515;29;20048;-71
2021/05/26 06:01:08;;;;;;;7.22;1.58;;;;;;;9.69;79.62;98751.00;4917530;29;20027;-73
2021/05/26 06:03:33;;;;;;;5.22;1.45;;;;;;;9.72;80.90;98755.28;4917187;29;20067;-73
2021/05/26 06:05:58;;;;;;;1.88;1.23;;;;;;;9.70;80.53;98752.69;4917014;29;20020;-75
2021/05/26 06:08:24;;;;;;;3.72;1.38;;;;;;;9.60;80.09;98765.78;4916937;29;20444;-70
2021/05/26 06:10:50;;;;;;;3.55;1.55;;;;;;;9.58;81.52;98772.75;4917477;29;20028;-75
2021/05/26 06:13:15;;;;;;;3.83;1.27;;;;;;;9.76;82.30;98782.78;4916305;29;20032;-75
2021/05/26 06:15:40;;;;;;;3.78;1.70;;;;;;;9.76;82.75;98756.91;4916969;29;20024;-75
2021/05/26 06:18:06;;;;;;;4.38;1.48;;;;;;;9.73;83.48;98757.00;4916652;29;20382;-75
2021/05/26 06:20:32;;;;;;;2.38;1.33;;;;;;;9.85;83.22;98749.03;4916392;29;20024;-75
2021/05/26 06:22:57;;;;;;;6.47;1.50;;;;;;;9.73;83.04;98754.41;4916614;29;20068;-75
2021/05/26 06:25:22;;;;;;;5.55;1.70;;;;;;;9.74;84.30;98756.09;4916104;29;20389;-75
2021/05/26 06:27:48;;;;;;;4.57;1.50;;;;;;;9.67;81.95;98746.69;4917109;29;20107;-70
2021/05/26 06:30:14;;;;;;;3.25;1.75;;;;;;;9.79;83.35;98749.13;4821948;29;20097;-71
2021/05/26 06:32:39;;;;;;;4.82;1.40;;;;;;;9.91;81.60;98743.78;4898208;29;20067;-71
2021/05/26 06:35:05;;;;;;;3.05;1.15;;;;;;;9.90;81.14;98739.44;4898120;29;20027;-70
2021/05/26 06:37:31;;;;;;;3.80;1.30;;;;;;;10.01;83.56;98742.75;4897614;29;20032;-70
2021/05/26 06:39:57;;;;;;;4.05;1.40;;;;;;;10.04;80.69;98736.63;4898095;29;20046;-70
2021/05/26 06:42:22;;;;;;;1.80;1.20;;;;;;;10.33;80.91;98728.41;4897111;29;20088;-71
2021/05/26 06:44:48;;;;;;;5.63;1.48;;;;;;;10.28;84.08;98725.03;4898127;29;20036;-71
2021/05/26 06:47:13;;;;;;;3.85;1.67;;;;;;;10.47;79.13;98722.97;4897630;29;20020;-71
2021/05/26 06:49:38;;;;;;;5.25;1.60;;;;;;;10.80;81.23;98724.06;4897839;29;20040;-71
2021/05/26 06:52:04;;;;;;;7.00;1.48;;;;;;;10.94;78.41;98726.41;4897806;29;20055;-72
2021/05/26 06:54:29;;;;;;;3.25;1.58;;;;;;;10.93;77.85;98725.56;4896901;29;20386;-72
2021/05/26 06:56:55;;;;;;;6.55;1.92;;;;;;;10.72;77.44;98710.41;4896926;29;20036;-72
2021/05/26 06:59:21;;;;;;;4.10;1.60;;;;;;;10.61;78.28;98725.31;4897755;29;20032;-72
2021/05/26 07:01:46;;;;;;;2.92;1.40;;;;;;;10.60;76.94;98726.22;4897719;29;20076;-72
2021/05/26 07:04:12;;;;;;;4.00;1.42;;;;;;;10.54;78.29;98722.84;4897274;29;20028;-76
2021/05/26 07:06:37;;;;;;;6.90;1.70;;;;;;;10.65;78.46;98724.38;4896592;29;20474;-72
2021/05/26 07:09:03;;;;;;;4.78;2.58;;;;;;;10.66;77.36;98720.91;4897005;29;20478;-72
2021/05/26 07:11:28;;;;;;;2.83;1.33;;;;;;;10.66;78.33;98713.13;4896057;29;20076;-73
2021/05/26 07:13:54;;;;;;;5.50;1.60;;;;;;;10.48;76.79;98717.75;4897338;29;20101;-72
2021/05/26 07:16:19;;;;;;;5.03;1.50;;;;;;;10.55;78.10;98703.81;4879707;29;20029;-72
2021/05/26 07:18:46;;;;;;;5.15;1.50;;;;;;;10.70;78.62;98707.00;4896957;29;20029;-72
2021/05/26 07:21:12;;;;;;;5.47;1.40;;;;;;;10.78;78.43;98700.78;4880485;29;20055;-73
2021/05/26 07:23:38;;;;;;;6.57;1.50;;;;;;;10.81;79.01;98710.22;4897112;29;20486;-73
2021/05/26 07:26:03;;;;;;;2.42;1.50;;;;;;;11.04;77.04;98708.03;4897398;29;20025;-73
2021/05/26 07:28:30;;;;;;;4.38;1.50;;;;;;;11.06;77.36;98701.06;4896049;29;20454;-73
2021/05/26 07:30:55;;;;;;;4.70;1.83;;;;;;;11.09;78.33;98704.47;4880569;29;20116;-72
2021/05/26 07:33:21;;;;;;;9.95;1.77;;;;;;;11.20;78.15;98697.31;4897106;29;20032;-72
2021/05/26 07:35:46;;;;;;;6.38;1.65;;;;;;;11.16;77.35;98700.84;4896900;29;20108;-73
2021/05/26 07:38:12;;;;;;;5.68;1.38;;;;;;;11.10;76.62;98695.81;4896233;29;20072;-72
2021/05/26 07:40:38;;;;;;;3.92;1.30;;;;;;;11.04;77.81;98696.81;4896132;29;20020;-72
2021/05/26 07:43:04;;;;;;;4.45;1.55;;;;;;;11.04;77.72;98694.22;4896408;29;20142;-73
2021/05/26 07:45:29;;;;;;;5.68;2.03;;;;;;;11.02;77.46;98689.06;4896513;29;20387;-74
2021/05/26 07:47:55;;;;;;;4.32;1.80;;;;;;;11.05;79.39;98693.31;4896784;29;20056;-74
2021/05/26 07:50:20;;;;;;;4.88;1.55;;;;;;;11.07;78.97;98687.22;4896903;29;20478;-72
2021/05/26 07:52:46;;;;;;;5.82;2.00;;;;;;;11.16;78.30;98693.09;4895659;29;20047;-74
2021/05/26 07:55:11;;;;;;;4.03;1.73;;;;;;;11.16;77.81;98685.31;4896679;29;20482;-74
2021/05/26 07:57:37;;;;;;;9.38;1.98;;;;;;;11.01;75.90;98687.34;4896352;29;20028;-74
2021/05/26 08:00:05;;;;;;;10.15;1.48;;;;;;;11.02;76.63;98683.00;4896738;29;20035;-74
2021/05/26 08:02:30;;;;;;;8.10;2.15;;;;;;;11.01;77.48;98692.53;4894653;29;20461;-74
2021/05/26 08:04:55;;;;;;;9.50;2.88;;;;;;;10.95;76.31;98697.84;4895909;29;20024;-74
2021/05/26 08:07:21;;;;;;;6.78;1.83;;;;;;;10.93;75.10;98698.78;4896136;29;20056;-74
2021/05/26 08:09:46;;;;;;;6.97;1.77;;;;;;;11.02;76.22;98689.06;4896368;29;20450;-74
2021/05/26 08:12:13;;;;;;;7.18;2.20;;;;;;;11.15;75.92;98693.97;4896511;29;20111;-74
2021/05/26 08:14:39;;;;;;;5.88;2.10;;;;;;;11.24;74.52;98688.59;4895903;29;20092;-74
2021/05/26 08:17:04;;;;;;;5.82;2.03;;;;;;;11.33;74.86;98696.16;4895719;29;20024;-73
2021/05/26 08:19:30;;;;;;;7.18;1.98;;;;;;;11.35;72.60;98694.38;4896060;29;20020;-72
2021/05/26 08:21:56;;;;;;;6.78;2.63;;;;;;;11.37;73.28;98691.78;4896399;29;20041;-72
2021/05/26 08:24:21;;;;;;;5.80;2.03;;;;;;;11.49;73.24;98687.13;4896570;29;20024;-72
2021/05/26 08:26:51;;;;;;;6.72;2.05;;;;;;;11.56;75.28;98682.69;4894901;29;20033;-72
2021/05/26 08:29:17;;;;;;;6.05;2.25;;;;;;;11.48;74.88;98685.44;4893087;29;20025;-77
2021/05/26 08:31:42;;;;;;;8.85;2.38;;;;;;;11.44;73.11;98686.41;4896006;29;20140;-76
2021/05/26 08:34:08;;;;;;;7.70;2.03;;;;;;;11.32;72.41;98689.28;4895830;29;20040;-77
2021/05/26 08:36:33;;;;;;;5.25;1.65;;;;;;;11.31;71.68;98690.16;4895730;29;20032;-74
2021/05/26 08:38:59;;;;;;;10.35;2.15;;;;;;;11.25;71.74;98690.28;4895306;29;20036;-74
2021/05/26 08:41:26;;;;;;;4.10;1.67;;;;;;;11.14;70.30;98692.28;4896188;29;20017;-72
2021/05/26 08:43:52;;;;;;;6.50;2.03;;;;;;;11.10;70.18;98701.00;4895867;29;20059;-76
2021/05/26 08:46:19;;;;;;;3.00;1.75;;;;;;;10.92;69.96;98686.69;4895827;29;20084;-77
2021/05/26 08:48:46;;;;;;;6.50;3.70;;;;;;;10.83;71.77;98698.13;4896635;29;20024;-77
2021/05/26 08:51:13;;;;;;;6.05;1.85;;;;;;;10.82;71.37;98704.16;4898569;29;20165;-76
2021/05/26 08:53:39;;;;;;;7.25;2.35;;;;;;;10.84;72.82;98698.97;4899689;29;20056;-76
2021/05/26 08:56:04;;;;;;;4.80;2.13;;;;;;;10.80;71.92;98700.75;4899888;29;20059;-77
2021/05/26 08:58:36;;;;;;;16.15;7.75;;;;;;;10.70;71.85;98709.59;4899826;29;20031;-77
2021/05/26 09:01:02;;;;;;;9.90;3.50;;;;;;;10.65;72.04;98695.88;4897780;29;20445;-72
2021/05/26 09:03:30;;;;;;;7.10;2.60;;;;;;;10.67;72.78;98701.88;4899250;29;20119;-72
2021/05/26 09:05:55;;;;;;;6.68;3.75;;;;;;;10.77;72.16;98709.44;4899338;29;20063;-72
2021/05/26 09:08:22;;;;;;;10.60;5.00;;;;;;;10.65;71.67;98698.47;4899545;29;20055;-76
2021/05/26 09:10:57;;;;;;;6.80;2.50;;;;;;;10.61;72.80;98713.22;4899813;29;20448;-72
2021/05/26 09:13:31;;;;;;;5.53;3.58;;;;;;;10.67;72.77;98709.66;4897243;29;20111;-74
2021/05/26 09:15:58;;;;;;;5.78;2.80;;;;;;;10.82;74.70;98712.78;4899133;29;20024;-75
2021/05/26 09:18:24;;;;;;;4.05;1.90;;;;;;;10.70;74.58;98707.00;4899462;29;20028;-76
2021/05/26 09:20:50;;;;;;;9.02;3.50;;;;;;;10.67;74.50;98707.06;4899387;29;20443;-77
2021/05/26 09:23:20;;;;;;;7.53;3.08;;;;;;;10.71;75.32;98708.72;4899513;29;20048;-76
2021/05/26 09:25:48;;;;;;;18.17;8.95;;;;;;;10.68;74.58;98708.75;4897086;29;20482;-76
2021/05/26 09:28:25;;;;;;;16.20;5.40;;;;;;;10.59;74.36;98708.94;4898683;29;20471;-77
2021/05/26 09:30:53;;;;;;;19.90;9.98;;;;;;;10.64;75.32;98702.81;4899275;29;20024;-72
2021/05/26 09:33:48;;;;;;;6.18;2.45;;;;;;;10.69;75.94;98705.31;4898974;29;20088;-72
2021/05/26 09:36:22;;;;;;;8.38;3.38;;;;;;;10.64;75.05;98701.94;4895619;29;20448;-72
2021/05/26 09:38:53;;;;;;;8.98;3.70;;;;;;;10.78;74.99;98705.09;4897801;29;20052;-77
2021/05/26 09:41:33;;;;;;;19.08;9.88;;;;;;;10.65;73.90;98701.91;4898852;29;20068;-76
2021/05/26 09:44:09;;;;;;;7.18;2.35;;;;;;;10.67;75.49;98697.53;4899062;29;20025;-76
2021/05/26 09:46:44;;;;;;;9.80;3.03;;;;;;;10.80;75.42;98698.16;4896071;29;20114;-77
2021/05/26 09:49:17;;;;;;;7.38;2.00;;;;;;;10.91;76.57;98705.72;4898174;29;20028;-72
2021/05/26 09:51:55;;;;;;;13.73;6.60;;;;;;;11.17;75.80;98692.19;4897389;29;20108;-71
2021/05/26 09:54:28;;;;;;;6.72;2.05;;;;;;;11.11;73.44;98692.34;4899025;29;20490;-74
2021/05/26 09:57:12;;;;;;;15.45;6.60;;;;;;;10.98;74.39;98692.59;4899130;29;20485;-74
2021/05/26 09:59:39;;;;;;;15.30;7.75;;;;;;;11.13;73.32;98695.75;4897741;29;20024;-75
2021/05/26 10:02:06;;;;;;;18.67;8.50;;;;;;;11.24;72.89;98699.81;4894034;29;20028;-72
2021/05/26 10:04:32;;;;;;;5.75;3.22;;;;;;;11.31;73.70;98706.59;4898461;29;20017;-73
2021/05/26 10:07:03;;;;;;;7.95;3.03;;;;;;;11.23;73.24;98694.66;4898386;29;20351;-73
2021/05/26 10:09:33;;;;;;;12.80;5.70;;;;;;;11.51;73.86;98693.16;4898662;29;20483;-72
2021/05/26 10:12:00;;;;;;;;;;;;;;;11.80;73.35;98694.22;4898269;29;20029;-73
2021/05/26 10:14:27;;;;;;;7.32;4.03;;;;;;;11.63;72.14;98697.19;4898681;29;19918;-74
2021/05/26 10:16:56;;;;;;;9.93;6.25;;;;;;;11.65;73.11;98695.41;4896993;29;20617;-74
2021/05/26 10:19:25;;;;;;;7.00;4.55;;;;;;;11.65;72.34;98692.81;4895677;29;20508;-74
2021/05/26 10:21:50;;;;;;;3.13;1.70;;;;;;;11.78;72.35;98695.97;4898539;29;20298;-72
2021/05/26 10:24:18;;;;;;;6.75;3.78;;;;;;;11.61;71.94;98692.97;4897642;29;20167;-72
2021/05/26 10:26:46;;;;;;;6.70;1.98;;;;;;;11.66;72.02;98691.09;4897051;29;20509;-74
2021/05/26 10:29:30;;;;;;;5.40;2.40;;;;;;;11.64;69.85;98692.88;4894904;29;20024;-72
2021/05/26 10:32:22;;;;;;;6.25;2.33;;;;;;;11.75;73.05;98696.94;4898217;29;20115;-72
2021/05/26 10:34:50;;;;;;;3.20;1.20;;;;;;;11.75;69.84;98696.06;4897477;29;20028;-72
2021/05/26 10:37:26;;;;;;;3.75;1.48;;;;;;;11.74;68.95;98695.19;4896864;29;20061;-72
2021/05/26 10:39:53;;;;;;;2.17;0.90;;;;;;;11.82;69.04;98703.69;4898065;29;20029;-76
2021/05/26 10:42:30;;;;;;;1.13;0.93;;;;;;;11.79;68.92;98695.09;4897556;29;20093;-72
2021/05/26 10:45:06;;;;;;;27.17;14.23;;;;;;;11.97;69.68;98697.28;4898002;29;20474;-72
2021/05/26 10:47:38;;;;;;;2.03;1.17;;;;;;;12.02;70.27;98698.00;4894207;29;20057;-77
2021/05/26 10:50:05;;;;;;;8.07;1.52;;;;;;;12.00;70.81;98689.41;4882793;29;20410;-76
2021/05/26 10:52:56;;;;;;;1.40;1.13;;;;;;;12.10;69.55;98692.63;4898009;29;20071;-77
2021/05/26 10:55:41;;;;;;;2.00;1.27;;;;;;;11.87;68.48;98685.41;4897510;29;20056;-74
2021/05/26 10:58:18;;;;;;;4.55;1.15;;;;;;;11.83;69.98;98694.16;4896619;29;20104;-72
2021/05/26 11:00:44;;;;;;;2.25;1.20;;;;;;;11.86;69.82;98694.09;4897379;29;20032;-76
2021/05/26 11:03:43;;;;;;;2.45;1.25;;;;;;;12.01;69.00;98690.25;4897503;29;20020;-72
2021/05/26 11:06:15;;;;;;;3.83;1.83;;;;;;;12.09;68.34;98686.59;4874492;29;20063;-72
2021/05/26 11:08:45;;;;;;;6.18;1.10;;;;;;;12.21;67.12;98684.56;4892717;29;20038;-72
2021/05/26 11:14:17;;;;;;;2.40;1.30;;;;;;;12.42;66.46;98688.31;4883825;29;20036;-72
2021/05/26 11:16:51;;;;;;;4.18;1.90;;;;;;;12.34;65.11;98685.94;4885438;29;20036;-71
2021/05/26 11:19:20;;;;;;;2.72;1.70;;;;;;;12.40;65.75;98685.78;4886451;29;20067;-71
2021/05/26 11:22:01;;;;;;;6.72;3.20;;;;;;;12.14;65.72;98680.44;4885979;29;20030;-71
2021/05/26 11:24:29;;;;;;;9.82;4.50;;;;;;;12.23;67.21;98682.75;4886982;29;20056;-71
2021/05/26 11:26:55;;;;;;;15.85;6.45;;;;;;;12.41;68.37;98687.47;4886844;29;20032;-71
2021/05/26 11:29:27;;;;;;;15.80;8.07;;;;;;;12.24;66.81;98684.50;4886151;29;20554;-75
2021/05/26 11:32:05;;;;;;;2.00;1.60;;;;;;;12.07;68.00;98677.97;4886942;29;20029;-75
2021/05/26 11:34:30;;;;;;;4.68;2.45;;;;;;;12.24;68.49;98684.50;4885905;29;20095;-75
2021/05/26 11:36:56;;;;;;;8.88;4.90;;;;;;;12.19;66.37;98675.97;4887785;29;20651;-75
2021/05/26 11:39:29;;;;;;;5.60;2.30;;;;;;;12.16;68.23;98678.63;4886370;29;21275;-75
2021/05/26 11:42:11;;;;;;;28.65;12.23;;;;;;;12.43;68.58;98677.91;4886283;29;21364;-73
2021/05/26 11:44:37;;;;;;;2.97;2.22;;;;;;;12.44;68.31;98677.00;4883104;29;20028;-71
2021/05/26 11:47:03;;;;;;;33.88;12.63;;;;;;;12.34;67.90;98675.56;4885939;29;20057;-73
2021/05/26 11:49:31;;;;;;;7.55;1.92;;;;;;;12.31;67.14;98668.69;4883293;29;20036;-71
2021/05/26 11:52:01;;;;;;;8.73;2.60;;;;;;;12.38;66.71;98666.78;4885585;29;20044;-72
2021/05/26 11:54:27;;;;;;;3.85;1.40;;;;;;;12.45;64.84;98660.50;4886719;29;20554;-71
2021/05/26 11:57:00;;;;;;;14.90;7.43;;;;;;;12.44;65.57;98666.63;4885372;29;20111;-71
2021/05/26 11:59:27;;;;;;;9.05;3.45;;;;;;;12.41;65.36;98660.63;4885638;29;20490;-72
2021/05/26 12:01:52;;;;;;;8.93;3.08;;;;;;;12.32;64.98;98652.19;4887137;29;20037;-72
2021/05/26 12:04:19;;;;;;;2.75;1.40;;;;;;;12.54;65.24;98662.88;4887422;29;20546;-73
2021/05/26 12:06:44;;;;;;;6.40;2.85;;;;;;;12.57;65.02;98657.59;4886594;29;20052;-73
2021/05/26 12:09:24;;;;;;;2.67;1.50;;;;;;;12.70;65.32;98654.63;4886528;29;20584;-71
2021/05/26 12:11:49;;;;;;;;;;;;;;;12.44;64.22;98652.78;4887457;29;20032;-71
2021/05/26 12:14:25;;;;;;;22.37;10.00;;;;;;;12.52;65.46;98664.66;4886515;29;19919;-71
2021/05/26 12:16:51;;;;;;;10.30;4.50;;;;;;;12.80;65.90;98651.72;4885494;29;20289;-71
2021/05/26 12:19:17;;;;;;;6.68;3.20;;;;;;;12.94;63.81;98651.31;4885454;29;20134;-76
2021/05/26 12:21:46;;;;;;;8.23;3.67;;;;;;;12.99;63.65;98639.03;4886208;29;20546;-72
2021/05/26 12:24:14;;;;;;;3.85;1.40;;;;;;;12.90;62.75;98643.66;4885209;29;20032;-72
2021/05/26 12:26:45;;;;;;;1.48;1.30;;;;;;;13.04;63.71;98649.28;4885487;29;20119;-75
2021/05/26 12:29:11;;;;;;;6.45;2.25;;;;;;;13.16;62.47;98635.06;4884907;29;20029;-74
2021/05/26 12:31:38;;;;;;;3.28;1.77;;;;;;;13.58;62.01;98632.88;4886357;29;20029;-75
2021/05/26 12:34:14;;;;;;;5.95;1.70;;;;;;;13.89;60.77;98627.53;4884852;29;20025;-75
2021/05/26 12:36:47;;;;;;;4.63;1.63;;;;;;;14.24;60.01;98623.69;4884690;29;20035;-72
2021/05/26 12:39:13;;;;;;;5.28;1.65;;;;;;;14.52;59.17;98623.59;4892345;29;20453;-73
2021/05/26 12:41:39;;;;;;;8.82;4.15;;;;;;;14.27;59.02;98623.59;4896104;29;20060;-76
2021/05/26 12:44:07;;;;;;;3.08;1.60;;;;;;;14.25;59.01;98624.53;4895141;29;20041;-76
2021/05/26 12:46:36;;;;;;;6.72;1.20;;;;;;;14.67;60.17;98618.72;4895631;29;20107;-77
2021/05/26 12:49:04;;;;;;;2.30;1.20;;;;;;;14.33;58.67;98622.53;4896196;29;20028;-73
2021/05/26 12:51:39;;;;;;;2.83;1.15;;;;;;;14.30;59.64;98635.66;4895900;29;20071;-72
2021/05/26 12:54:04;;;;;;;4.88;2.72;;;;;;;14.11;60.50;98623.25;4892744;29;20029;-76
2021/05/26 12:56:30;;;;;;;3.03;2.10;;;;;;;14.13;59.45;98626.69;4893317;29;20024;-72
2021/05/26 12:58:55;;;;;;;4.90;1.40;;;;;;;14.11;60.23;98638.91;4895987;29;20490;-72
2021/05/26 13:01:21;;;;;;;3.33;1.83;;;;;;;14.38;59.15;98620.59;4895781;29;20029;-76
2021/05/26 13:03:46;;;;;;;3.25;1.50;;;;;;;14.23;60.84;98623.75;4895846;29;20151;-75
2021/05/26 13:06:16;;;;;;;3.38;1.48;;;;;;;14.32;61.31;98616.47;4895109;29;20020;-75
2021/05/26 13:08:59;;;;;;;3.45;0.98;;;;;;;14.33;60.67;98622.53;4891031;29;20154;-70
2021/05/26 13:11:41;;;;;;;1.67;1.10;;;;;;;14.10;60.94;98632.00;4890299;29;20021;-73
2021/05/26 13:14:07;;;;;;;7.03;1.60;;;;;;;13.87;59.92;98631.91;4892663;29;20051;-72
2021/05/26 13:16:32;;;;;;;2.97;1.08;;;;;;;13.65;60.46;98623.13;4891426;29;20451;-72
2021/05/26 13:18:57;;;;;;;1.70;0.80;;;;;;;13.73;60.86;98631.53;4890711;29;20036;-73
2021/05/26 13:21:23;;;;;;;4.50;1.05;;;;;;;13.79;60.89;98620.94;4892145;29;20046;-73
2021/05/26 13:23:48;;;;;;;0.93;0.80;;;;;;;13.80;59.77;98630.44;4892788;29;20036;-73
2021/05/26 13:26:13;;;;;;;1.70;1.60;;;;;;;13.87;60.39;98629.31;4892386;29;20020;-73
2021/05/26 13:28:39;;;;;;;56.70;29.90;;;;;;;13.73;60.32;98621.13;4892242;29;20029;-73
2021/05/26 13:31:05;;;;;;;2.72;1.60;;;;;;;13.61;60.76;98620.63;4890157;29;20076;-72
2021/05/26 13:33:30;;;;;;;1.25;0.88;;;;;;;13.76;60.80;98626.22;4890329;29;20051;-72
2021/05/26 13:35:58;;;;;;;3.08;1.33;;;;;;;13.85;59.82;98621.56;4891776;29;20024;-72
2021/05/26 13:38:24;;;;;;;5.22;3.42;;;;;;;14.06;59.52;98619.13;4897929;29;20088;-72
2021/05/26 13:40:49;;;;;;;2.22;1.00;;;;;;;14.54;58.57;98610.50;4898934;29;20040;-72
2021/05/26 13:43:15;;;;;;;2.08;0.88;;;;;;;14.40;58.18;98619.63;4898372;29;20035;-72
2021/05/26 13:45:41;;;;;;;4.00;1.55;;;;;;;14.34;58.30;98619.00;4896736;29;20028;-72
2021/05/26 13:48:07;;;;;;;2.85;1.20;;;;;;;14.34;58.16;98613.78;4896443;29;20027;-72
2021/05/26 13:50:39;;;;;;;2.22;1.23;;;;;;;14.66;58.06;98620.50;4896765;29;20073;-73
2021/05/26 13:53:04;;;;;;;1.92;1.35;;;;;;;15.13;57.04;98610.84;4898251;29;20025;-73
2021/05/26 13:55:31;;;;;;;1.30;1.08;;;;;;;15.15;56.71;98611.63;4898444;29;20052;-71
2021/05/26 13:57:59;;;;;;;3.60;1.17;;;;;;;15.12;57.42;98614.34;4898617;29;20025;-70
2021/05/26 14:00:27;;;;;;;3.53;1.60;;;;;;;14.94;56.12;98609.00;4898724;29;20039;-73
2021/05/26 14:02:53;;;;;;;1.17;1.00;;;;;;;14.83;57.08;98606.81;4898671;29;20017;-73
2021/05/26 14:05:20;;;;;;;1.23;0.80;;;;;;;15.24;56.51;98606.97;4897430;29;20071;-70
2021/05/26 14:07:46;;;;;;;4.32;1.45;;;;;;;15.29;56.25;98597.19;4898306;29;20101;-70
2021/05/26 14:10:16;;;;;;;1.67;1.42;;;;;;;15.25;55.90;98595.63;4898687;29;20024;-71
2021/05/26 14:12:47;;;;;;;4.43;2.10;;;;;;;14.96;56.61;98592.38;4898329;29;20067;-71
2021/05/26 14:15:13;;;;;;;7.40;2.50;;;;;;;15.04;55.71;98592.94;4898414;29;20079;-71
2021/05/26 14:17:38;;;;;;;2.05;1.10;;;;;;;14.92;57.41;98593.41;4897378;29;20375;-73
2021/05/26 14:20:07;;;;;;;2.80;1.65;;;;;;;14.69;56.35;98594.28;4893054;29;20036;-73
2021/05/26 14:22:33;;;;;;;1.58;1.25;;;;;;;14.61;56.93;98591.97;4896640;29;20028;-75
2021/05/26 14:24:59;;;;;;;2.25;1.20;;;;;;;14.41;57.85;98589.22;4902317;29;20039;-73
2021/05/26 14:27:25;;;;;;;3.97;1.60;;;;;;;14.20;58.03;98595.19;4897751;29;20029;-71
2021/05/26 14:29:50;;;;;;;4.88;1.42;;;;;;;14.32;58.92;98594.78;4896327;29;20126;-73
2021/05/26 14:32:16;;;;;;;1.55;1.40;;;;;;;14.25;58.67;98593.28;4898389;29;20500;-75
2021/05/26 14:34:43;;;;;;;1.20;1.10;;;;;;;14.27;58.37;98591.47;4896514;29;20028;-75
2021/05/26 14:37:11;;;;;;;3.83;1.08;;;;;;;14.32;58.14;98589.56;4898312;29;20032;-75
2021/05/26 14:39:39;;;;;;;4.68;3.05;;;;;;;14.40;58.32;98587.50;4896597;29;20024;-75
2021/05/26 14:42:05;;;;;;;7.40;2.22;;;;;;;14.43;58.57;98587.41;4897599;29;20168;-71
2021/05/26 14:44:30;;;;;;;3.42;1.60;;;;;;;14.07;59.09;98590.44;4897976;29;20488;-73
2021/05/26 14:46:56;;;;;;;1.92;1.08;;;;;;;14.10;60.25;98590.31;4897241;29;20360;-73
2021/05/26 14:49:22;;;;;;;3.90;1.90;;;;;;;13.98;60.10;98590.75;4896827;29;20025;-70
2021/05/26 14:51:47;;;;;;;1.00;1.00;;;;;;;13.84;60.37;98593.81;4896754;29;20055;-71
2021/05/26 14:54:12;;;;;;;3.95;1.00;;;;;;;13.85;60.31;98584.25;4897853;29;20114;-71
2021/05/26 14:56:38;;;;;;;3.17;1.30;;;;;;;13.89;60.26;98588.47;4880010;29;20024;-75
2021/05/26 14:59:03;;;;;;;1.67;1.10;;;;;;;14.01;60.06;98585.41;4897724;29;20033;-75
2021/05/26 15:01:30;;;;;;;2.92;1.33;;;;;;;14.26;60.05;98581.94;4897711;29;20028;-72
2021/05/26 15:03:56;;;;;;;2.88;2.13;;;;;;;14.32;58.77;98579.97;4896392;29;20035;-71
2021/05/26 15:06:22;;;;;;;9.48;6.70;;;;;;;14.61;58.55;98586.75;4879056;29;20395;-73
2021/05/26 15:08:48;;;;;;;2.92;1.85;;;;;;;14.39;58.59;98585.81;4897449;29;20036;-73
2021/05/26 15:11:14;;;;;;;3.15;1.67;;;;;;;14.23;58.93;98582.06;4897509;29;20047;-73
2021/05/26 15:13:41;;;;;;;3.58;1.20;;;;;;;14.20;59.16;98584.75;4897526;29;20032;-71
2021/05/26 15:16:07;;;;;;;1.98;1.10;;;;;;;14.03;60.36;98594.03;4896240;29;20025;-71
2021/05/26 15:18:32;;;;;;;5.60;3.92;;;;;;;14.23;59.94;98590.72;4896421;29;20033;-72
2021/05/26 15:20:58;;;;;;;2.53;1.20;;;;;;;14.34;59.52;98587.72;4897380;29;20031;-72
2021/05/26 15:23:23;;;;;;;2.40;1.20;;;;;;;14.26;60.03;98580.19;4896900;29;20025;-71
2021/05/26 15:25:49;;;;;;;1.80;1.23;;;;;;;14.41;59.35;98581.41;4895696;29;20024;-71
2021/05/26 15:28:16;;;;;;;4.50;1.35;;;;;;;14.20;58.46;98584.75;4895757;29;20103;-72
2021/05/26 15:30:42;;;;;;;3.78;1.58;;;;;;;14.14;59.03;98580.63;4897157;29;20037;-71
2021/05/26 15:33:08;;;;;;;4.85;1.52;;;;;;;14.19;59.04;98577.88;4895584;29;20104;-71
2021/05/26 15:35:34;;;;;;;4.47;1.35;;;;;;;14.13;59.21;98578.94;4896956;29;20060;-72
2021/05/26 15:38:01;;;;;;;1.95;1.40;;;;;;;14.07;59.33;98589.56;4896057;29;20667;-71
2021/05/26 15:40:27;;;;;;;3.15;1.27;;;;;;;13.95;59.88;98588.25;4896052;29;20470;-71
2021/05/26 15:42:52;;;;;;;0.90;0.90;;;;;;;13.83;59.82;98583.47;4894749;29;20031;-71
2021/05/26 15:45:18;;;;;;;4.78;1.73;;;;;;;13.85;59.55;98589.47;4895584;29;20021;-71
2021/05/26 15:47:43;;;;;;;2.90;1.42;;;;;;;13.87;59.50;98598.91;4894968;29;20167;-75
2021/05/26 15:50:09;;;;;;;3.55;1.05;;;;;;;13.90;58.55;98592.75;4895349;29;20021;-71
2021/05/26 15:52:37;;;;;;;6.22;3.40;;;;;;;13.74;58.87;98591.59;4895065;29;20104;-71
2021/05/26 15:55:08;;;;;;;1.30;1.00;;;;;;;13.86;59.83;98593.75;4894405;29;20338;-71